Key Center, Washington
Current Conditions -  °F | °C
As of 3:53 PM on Saturday 25 Oct 2014 (Local Time) from KTIW Reporting Station
Overcast Overcast  
Wind Chill: 59°   Ceiling: 4700
Heat Index: 59°   Visibility: 10mi
Dew Point: 50°   Wind: 12mph
Humidity: 72%   Direction: 160°SSE
Pressure: 29.28"   Gusts: 20mph
Location:  47.2986°N, 122.616°W
Report Text: KTIW 252253Z 16010G17KT 10SM BKN047 OVC060 15/10 A2928 RMK AO2 RAE42 SLP916 P0002 T01500100
Loading
Personal Weather Stations






























Interactive Weather Map
Tropical Storm Tracking
New forecast layout! Learn more

10-Day Weather Forecast

Advertisements
Track Severe Weather on mobile